Ranchito, Texas
Current Conditions -  °F | °C
As of 7:12 AM on Sunday 21 Dec 2014 (Local Time) from KHRL Reporting Station
Light Rain Light Rain  
Wind Chill: 57°   Ceiling: 800
Heat Index: 57°   Visibility: 6mi
Dew Point: 55°   Wind: 10mph
Humidity: 94%   Direction: 330°NNW
Pressure: 30.07"   Gusts: NA
Location:  26.1784°N, 97.6678°W
Report Text: KHRL 211312Z 33009KT 6SM -RA BR BKN008 BKN035 OVC043 14/13 A3007 RMK AO2 P0001
Loading
Personal Weather Stations






























Interactive Weather Map New forecast layout! Learn more

10-Day Weather Forecast

Advertisements
Track Severe Weather on mobile